createdAt,value
2023-02-12T00:02:05.301Z,3.63
2023-02-12T00:04:31.973Z,4.07
2023-02-12T00:06:58.564Z,4.87
2023-02-12T00:09:25.519Z,2.90
2023-02-12T00:11:52.281Z,3.70
2023-02-12T00:14:19.050Z,3.23
2023-02-12T00:16:45.706Z,3.17
2023-02-12T00:19:12.418Z,2.87
2023-02-12T00:21:39.151Z,3.17
2023-02-12T00:24:05.968Z,2.53
2023-02-12T00:26:32.775Z,3.50
2023-02-12T00:28:59.376Z,5.30
2023-02-12T00:31:28.814Z,2.97
2023-02-12T00:33:55.761Z,1.97
2023-02-12T00:36:25.166Z,3.23
2023-02-12T00:38:53.712Z,6.13
2023-02-12T00:41:21.094Z,3.07
2023-02-12T00:43:48.769Z,4.07
2023-02-12T00:46:15.867Z,3.00
2023-02-12T00:48:42.915Z,2.90
2023-02-12T00:51:09.677Z,2.97
2023-02-12T00:53:36.419Z,3.93
2023-02-12T00:56:03.096Z,4.33
2023-02-12T00:58:29.707Z,2.80
2023-02-12T01:00:56.378Z,3.43
2023-02-12T01:03:23.894Z,3.53
2023-02-12T01:05:50.621Z,2.97
2023-02-12T01:08:17.594Z,2.43
2023-02-12T01:10:44.855Z,2.13
2023-02-12T01:13:15.355Z,3.00
2023-02-12T01:15:42.412Z,3.30
2023-02-12T01:18:09.242Z,3.00
2023-02-12T01:20:35.903Z,2.83
2023-02-12T01:23:03.385Z,3.03
2023-02-12T01:25:30.018Z,1.77
2023-02-12T01:27:56.656Z,3.40
2023-02-12T01:30:24.325Z,3.33
2023-02-12T01:32:51.140Z,2.50
2023-02-12T01:35:17.808Z,2.97
2023-02-12T01:37:44.468Z,3.07
2023-02-12T01:40:14.837Z,2.70
2023-02-12T01:42:41.436Z,3.27
2023-02-12T01:45:14.058Z,2.80
2023-02-12T01:47:42.405Z,3.20
2023-02-12T01:50:13.300Z,3.47
2023-02-12T01:52:43.734Z,3.10
2023-02-12T01:55:11.699Z,3.63
2023-02-12T01:57:42.761Z,3.40
2023-02-12T02:00:17.149Z,3.50
2023-02-12T02:02:47.263Z,2.83
2023-02-12T02:05:18.401Z,5.03
2023-02-12T02:07:45.664Z,3.97
2023-02-12T02:10:12.450Z,3.37
2023-02-12T02:12:58.383Z,2.60
2023-02-12T02:15:30.569Z,3.17
2023-02-12T02:18:09.191Z,3.70
2023-02-12T02:20:59.998Z,3.43
2023-02-12T02:23:59.315Z,3.40
2023-02-12T02:26:54.981Z,3.23
2023-02-12T02:29:27.285Z,3.00
2023-02-12T02:32:32.720Z,2.30
2023-02-12T02:35:09.596Z,3.00
2023-02-12T02:37:57.266Z,2.70
2023-02-12T02:40:27.250Z,1.97
2023-02-12T02:43:05.542Z,3.60
2023-02-12T02:45:43.646Z,4.33
2023-02-12T02:48:25.069Z,3.07
2023-02-12T02:51:24.602Z,3.10
2023-02-12T02:54:01.180Z,3.30
2023-02-12T02:56:29.666Z,3.73
2023-02-12T02:59:03.189Z,3.40
2023-02-12T03:01:38.959Z,3.97
2023-02-12T03:04:07.901Z,3.40
2023-02-12T03:06:47.139Z,3.67
2023-02-12T03:09:22.647Z,3.87
2023-02-12T03:11:50.980Z,2.93
2023-02-12T03:14:38.407Z,3.20
2023-02-12T03:17:15.694Z,3.40
2023-02-12T03:19:46.889Z,2.77
2023-02-12T03:22:22.243Z,5.13
2023-02-12T03:24:56.010Z,3.43
2023-02-12T03:27:33.246Z,3.93
2023-02-12T03:30:00.987Z,3.70
2023-02-12T03:32:52.026Z,3.33
2023-02-12T03:35:24.758Z,2.77
2023-02-12T03:38:39.762Z,4.13
2023-02-12T03:41:11.989Z,5.27
2023-02-12T03:44:04.095Z,3.00
2023-02-12T03:46:43.614Z,4.17
2023-02-12T03:49:29.266Z,3.20
2023-02-12T03:51:56.262Z,3.07
2023-02-12T03:54:23.199Z,3.17
2023-02-12T03:56:52.584Z,3.03
2023-02-12T03:59:21.364Z,2.97
2023-02-12T04:01:50.022Z,3.57
2023-02-12T04:04:17.543Z,3.23
2023-02-12T04:06:48.008Z,4.20
2023-02-12T04:09:15.436Z,4.27
2023-02-12T04:11:59.260Z,3.23
2023-02-12T04:14:56.902Z,3.13
2023-02-12T04:17:54.173Z,2.70
2023-02-12T04:20:41.416Z,3.73
2023-02-12T04:23:32.800Z,2.63
2023-02-12T04:26:22.253Z,3.77
2023-02-12T04:28:58.447Z,3.73
2023-02-12T04:31:44.982Z,3.23
2023-02-12T04:34:31.591Z,3.40
2023-02-12T04:37:05.673Z,3.20
2023-02-12T04:39:37.053Z,3.60
2023-02-12T04:42:04.156Z,3.73
2023-02-12T04:44:37.686Z,3.67
2023-02-12T04:47:04.628Z,3.23
2023-02-12T04:49:31.794Z,4.23
2023-02-12T04:51:58.584Z,3.67
2023-02-12T04:54:25.574Z,3.00
2023-02-12T04:56:52.230Z,4.30
2023-02-12T04:59:18.873Z,3.90
2023-02-12T05:01:45.691Z,3.80
2023-02-12T05:04:14.846Z,3.77
2023-02-12T05:06:42.707Z,3.63
2023-02-12T05:09:13.356Z,3.30
2023-02-12T05:11:40.031Z,6.57
2023-02-12T05:14:06.703Z,3.97
2023-02-12T05:16:33.288Z,3.23
2023-02-12T05:18:59.942Z,3.53
2023-02-12T05:21:26.618Z,4.07
2023-02-12T05:23:53.298Z,3.03
2023-02-12T05:26:22.199Z,3.57
2023-02-12T05:28:48.964Z,4.07
2023-02-12T05:31:21.289Z,3.37
2023-02-12T05:33:49.964Z,4.00
2023-02-12T05:36:22.545Z,3.27
2023-02-12T05:38:53.243Z,3.33
2023-02-12T05:41:22.378Z,3.40
2023-02-12T05:43:50.218Z,3.57
2023-02-12T05:46:19.341Z,3.27
2023-02-12T05:48:48.350Z,3.53
2023-02-12T05:51:21.967Z,3.90
2023-02-12T05:53:50.165Z,3.43
2023-02-12T05:56:20.220Z,3.40
2023-02-12T05:58:51.765Z,4.53
2023-02-12T06:01:22.331Z,3.60
2023-02-12T06:03:48.992Z,4.03
2023-02-12T06:06:15.646Z,4.57
2023-02-12T06:08:42.950Z,3.30
2023-02-12T06:11:14.061Z,3.07
2023-02-12T06:13:41.018Z,3.67
2023-02-12T06:16:08.341Z,4.07
2023-02-12T06:18:36.371Z,4.03
2023-02-12T06:21:04.409Z,2.87
2023-02-12T06:23:31.053Z,5.07
2023-02-12T06:25:58.171Z,3.13
2023-02-12T06:28:25.113Z,3.43
2023-02-12T06:30:52.063Z,3.63
2023-02-12T06:33:18.718Z,3.33
2023-02-12T06:35:45.392Z,2.83
2023-02-12T06:38:12.450Z,3.80
2023-02-12T06:40:39.045Z,4.13
2023-02-12T06:43:05.678Z,4.83
2023-02-12T06:45:33.563Z,5.00
2023-02-12T06:48:00.234Z,2.83
2023-02-12T06:50:27.678Z,3.90
2023-02-12T06:52:54.360Z,4.30
2023-02-12T06:55:21.183Z,4.60
2023-02-12T06:57:47.840Z,4.10
2023-02-12T07:00:14.719Z,3.30
2023-02-12T07:02:41.733Z,4.57
2023-02-12T07:05:08.571Z,5.53
2023-02-12T07:07:35.265Z,3.80
2023-02-12T07:10:02.028Z,4.27
2023-02-12T07:12:28.687Z,4.10
2023-02-12T07:14:55.320Z,4.43
2023-02-12T07:17:22.004Z,4.03
2023-02-12T07:19:48.586Z,5.10
2023-02-12T07:22:15.210Z,3.30
2023-02-12T07:24:41.925Z,3.00
2023-02-12T07:27:08.566Z,4.50
2023-02-12T07:29:35.293Z,4.23
2023-02-12T07:32:01.942Z,4.20
2023-02-12T07:34:28.609Z,4.23
2023-02-12T07:36:55.185Z,5.50
2023-02-12T07:39:22.053Z,4.73
2023-02-12T07:41:48.729Z,3.77
2023-02-12T07:44:15.387Z,4.30
2023-02-12T07:46:48.602Z,3.70
2023-02-12T07:49:18.609Z,4.13
2023-02-12T07:51:46.170Z,5.07
2023-02-12T07:54:13.393Z,5.37
2023-02-12T07:56:41.256Z,6.10
2023-02-12T07:59:12.630Z,5.40
2023-02-12T08:01:42.063Z,5.80
2023-02-12T08:04:13.390Z,5.00
2023-02-12T08:06:51.918Z,5.97
2023-02-12T08:09:21.742Z,5.17
2023-02-12T08:11:48.790Z,6.17
2023-02-12T08:14:18.709Z,4.60
2023-02-12T08:16:46.629Z,5.83
2023-02-12T08:19:20.978Z,5.20
2023-02-12T08:21:50.769Z,5.90
2023-02-12T08:24:17.455Z,5.70
2023-02-12T08:26:44.491Z,6.70
2023-02-12T08:29:14.412Z,8.07
2023-02-12T08:31:44.273Z,5.83
2023-02-12T08:34:22.440Z,6.50
2023-02-12T08:36:50.665Z,5.43
2023-02-12T08:39:18.342Z,5.40
2023-02-12T08:41:45.352Z,5.83
2023-02-12T08:44:12.420Z,4.47
2023-02-12T08:46:44.126Z,4.40
2023-02-12T08:49:16.428Z,5.97
2023-02-12T08:51:48.891Z,6.43
2023-02-12T08:54:21.416Z,4.30
2023-02-12T08:56:48.133Z,6.50
2023-02-12T08:59:16.091Z,6.67
2023-02-12T09:01:43.998Z,4.73
2023-02-12T09:04:23.307Z,5.80
2023-02-12T09:06:50.824Z,4.90
2023-02-12T09:09:17.973Z,5.50
2023-02-12T09:11:44.996Z,5.70
2023-02-12T09:14:15.675Z,4.80
2023-02-12T09:16:43.813Z,5.10
2023-02-12T09:19:13.740Z,5.53
2023-02-12T09:21:40.434Z,5.20
2023-02-12T09:24:07.844Z,4.60
2023-02-12T09:26:34.512Z,4.70
2023-02-12T09:29:04.389Z,9.03
2023-02-12T09:31:33.078Z,5.17
2023-02-12T09:34:05.021Z,4.43
2023-02-12T09:36:32.941Z,4.60
2023-02-12T09:39:00.482Z,5.90
2023-02-12T09:41:42.716Z,6.90
2023-02-12T09:44:38.353Z,5.40
2023-02-12T09:47:27.220Z,6.50
2023-02-12T09:50:00.153Z,6.93
2023-02-12T09:52:29.018Z,7.80
2023-02-12T09:54:56.900Z,7.67
2023-02-12T09:57:31.567Z,5.90
2023-02-12T10:00:03.949Z,5.30
2023-02-12T10:02:30.759Z,9.30
2023-02-12T10:05:01.843Z,5.40
2023-02-12T10:07:44.264Z,7.57
2023-02-12T10:10:38.470Z,7.00
2023-02-12T10:13:06.542Z,6.60
2023-02-12T10:15:39.137Z,6.00
2023-02-12T10:18:56.511Z,5.80
2023-02-12T10:21:23.026Z,5.57
2023-02-12T10:23:49.590Z,8.77
2023-02-12T10:26:25.896Z,7.77
2023-02-12T10:28:53.756Z,10.03
2023-02-12T10:31:32.153Z,7.20
2023-02-12T10:33:59.056Z,7.63
2023-02-12T10:36:41.761Z,7.80
2023-02-12T10:39:12.933Z,5.80
2023-02-12T10:41:55.071Z,7.53
2023-02-12T10:44:21.820Z,9.33
2023-02-12T10:46:48.534Z,8.53
2023-02-12T10:49:17.899Z,8.30
2023-02-12T10:51:56.472Z,8.07
2023-02-12T10:54:49.579Z,7.00
2023-02-12T10:57:26.709Z,8.83
2023-02-12T10:59:57.447Z,9.37
2023-02-12T11:02:33.433Z,9.73
2023-02-12T11:05:15.770Z,8.97
2023-02-12T11:07:51.028Z,7.53
2023-02-12T11:10:41.806Z,9.87
2023-02-12T11:13:25.559Z,9.47
2023-02-12T11:15:52.574Z,9.93
2023-02-12T11:18:26.250Z,11.33
2023-02-12T11:20:55.042Z,11.67
2023-02-12T11:23:38.259Z,10.67
2023-02-12T11:26:19.728Z,12.43
2023-02-12T11:29:17.198Z,7.93
2023-02-12T11:32:01.050Z,9.67
2023-02-12T11:34:29.822Z,7.60
2023-02-12T11:36:57.582Z,16.77
2023-02-12T11:39:28.019Z,9.63
2023-02-12T11:42:20.093Z,7.77
2023-02-12T11:44:57.361Z,7.50
2023-02-12T11:47:30.722Z,6.50
2023-02-12T11:50:00.467Z,7.60
2023-02-12T11:52:31.348Z,8.53
2023-02-12T11:55:02.675Z,6.00
2023-02-12T11:57:48.444Z,5.47
2023-02-12T12:00:25.810Z,6.33
2023-02-12T12:03:42.146Z,8.23
2023-02-12T12:06:19.923Z,7.13
2023-02-12T12:09:13.165Z,7.87
2023-02-12T12:11:59.179Z,7.97
2023-02-12T12:15:03.644Z,6.50
2023-02-12T12:18:15.105Z,7.30
2023-02-12T12:20:47.705Z,7.90
2023-02-12T12:23:21.837Z,10.33
2023-02-12T12:25:52.858Z,8.77
2023-02-12T12:28:45.552Z,8.60
2023-02-12T12:31:40.370Z,8.10
2023-02-12T12:34:13.620Z,8.23
2023-02-12T12:36:59.643Z,7.77
2023-02-12T12:39:34.999Z,7.70
2023-02-12T12:42:31.443Z,7.33
2023-02-12T12:44:57.964Z,7.70
2023-02-12T12:47:44.548Z,7.60
2023-02-12T12:50:32.190Z,7.33
2023-02-12T12:53:31.878Z,8.50
2023-02-12T12:56:11.030Z,7.60
2023-02-12T12:59:06.521Z,8.43
2023-02-12T13:01:42.275Z,10.07
2023-02-12T13:04:34.804Z,9.23
2023-02-12T13:07:10.313Z,9.83
2023-02-12T13:10:06.929Z,8.00
2023-02-12T13:12:37.732Z,7.63
2023-02-12T13:15:10.218Z,10.70
2023-02-12T13:17:41.464Z,7.67
2023-02-12T13:20:34.625Z,10.53
2023-02-12T13:23:04.191Z,11.60
2023-02-12T13:25:59.986Z,9.40
2023-02-12T13:28:40.809Z,9.77
2023-02-12T13:31:32.477Z,10.20
2023-02-12T13:34:04.447Z,9.80
2023-02-12T13:36:32.501Z,9.57
2023-02-12T13:39:15.255Z,10.47
2023-02-12T13:41:52.368Z,8.43
2023-02-12T13:44:32.953Z,10.83
2023-02-12T13:47:08.354Z,9.57
2023-02-12T13:49:49.852Z,8.43
2023-02-12T13:52:43.607Z,8.63
2023-02-12T13:55:35.049Z,8.27
2023-02-12T13:58:32.710Z,8.90
2023-02-12T14:01:04.775Z,9.20
2023-02-12T14:03:32.533Z,7.03
2023-02-12T14:13:27.929Z,8.23
2023-02-12T14:15:59.258Z,7.77
2023-02-12T14:18:31.636Z,9.40
2023-02-12T14:21:13.430Z,7.77
2023-02-12T14:23:45.932Z,7.27
2023-02-12T14:26:14.670Z,8.43
2023-02-12T14:28:45.427Z,9.10
2023-02-12T14:31:18.809Z,10.93
2023-02-12T14:33:50.818Z,9.03
2023-02-12T14:36:32.593Z,9.10
2023-02-12T14:39:22.047Z,8.80
2023-02-12T14:41:51.897Z,9.53
2023-02-12T14:44:18.473Z,10.10
2023-02-12T14:46:51.818Z,9.13
2023-02-12T14:49:28.716Z,9.13
2023-02-12T14:52:13.492Z,8.93
2023-02-12T14:54:51.457Z,10.73
2023-02-12T14:57:28.450Z,10.40
2023-02-12T14:59:59.067Z,9.00
2023-02-12T15:02:27.920Z,10.37
2023-02-12T15:05:06.836Z,7.93
2023-02-12T15:07:41.191Z,7.73
2023-02-12T15:10:15.482Z,9.00
2023-02-12T15:13:09.616Z,9.30
2023-02-12T15:15:45.598Z,9.90
2023-02-12T15:18:15.898Z,11.03
2023-02-12T15:20:55.209Z,11.10
2023-02-12T15:23:33.977Z,11.03
2023-02-12T15:26:01.200Z,10.77
2023-02-12T15:28:35.086Z,12.30
2023-02-12T15:31:04.866Z,12.13
2023-02-12T15:33:34.448Z,11.60
2023-02-12T15:36:03.182Z,11.53
2023-02-12T15:38:36.962Z,13.73
2023-02-12T15:41:05.001Z,13.23
2023-02-12T15:43:36.801Z,10.27
2023-02-12T15:46:06.373Z,11.23
2023-02-12T15:48:35.483Z,11.30
2023-02-12T15:51:30.163Z,11.93
2023-02-12T15:53:59.748Z,10.30
2023-02-12T15:56:27.920Z,11.73
2023-02-12T15:58:57.650Z,12.80
2023-02-12T16:01:35.518Z,9.50
2023-02-12T16:04:08.147Z,12.77
2023-02-12T16:06:36.840Z,10.07
2023-02-12T16:09:05.760Z,10.23
2023-02-12T16:11:33.654Z,15.37
2023-02-12T16:14:07.803Z,10.63
2023-02-12T16:16:46.134Z,11.33
2023-02-12T16:19:30.367Z,14.10
2023-02-12T16:22:11.918Z,15.50
2023-02-12T16:24:47.217Z,11.20
2023-02-12T16:27:34.679Z,15.17
2023-02-12T16:30:05.406Z,11.40
2023-02-12T16:32:41.250Z,14.10
2023-02-12T16:35:10.522Z,11.93
2023-02-12T16:37:37.075Z,13.67
2023-02-12T16:40:12.964Z,13.33
2023-02-12T16:42:55.465Z,14.63
2023-02-12T16:45:28.159Z,14.37
2023-02-12T16:48:24.474Z,14.13
2023-02-12T16:50:56.870Z,12.93
2023-02-12T16:53:43.770Z,13.87
2023-02-12T16:56:15.855Z,12.13
2023-02-12T16:58:43.057Z,15.27
2023-02-12T17:01:09.879Z,16.13
2023-02-12T17:03:37.620Z,11.40
2023-02-12T17:06:04.456Z,15.60
2023-02-12T17:08:31.111Z,15.27
2023-02-12T17:10:57.794Z,15.90
2023-02-12T17:13:24.366Z,19.43
2023-02-12T17:15:55.559Z,15.60
2023-02-12T17:18:25.006Z,11.20
2023-02-12T17:20:56.414Z,10.30
2023-02-12T17:23:24.162Z,17.50
2023-02-12T17:25:50.782Z,17.53
2023-02-12T17:28:17.508Z,14.97
2023-02-12T17:30:44.550Z,22.67
2023-02-12T17:33:11.560Z,20.57
2023-02-12T17:35:39.392Z,21.00
2023-02-12T17:38:07.469Z,18.30
2023-02-12T17:40:38.198Z,17.17
2023-02-12T17:43:06.617Z,15.70
2023-02-12T17:45:33.681Z,15.80
2023-02-12T17:48:00.426Z,18.30
2023-02-12T17:50:27.474Z,16.53
2023-02-12T17:52:54.126Z,15.83
2023-02-12T17:55:20.869Z,16.27
2023-02-12T17:57:56.407Z,16.97
2023-02-12T18:00:24.041Z,14.13
2023-02-12T18:02:52.072Z,13.93
2023-02-12T18:05:18.787Z,15.23
2023-02-12T18:07:45.350Z,14.93
2023-02-12T18:10:12.526Z,14.83
2023-02-12T18:12:39.902Z,15.23
2023-02-12T18:15:08.427Z,15.33
2023-02-12T18:17:35.960Z,16.20
2023-02-12T18:20:03.319Z,18.33
2023-02-12T18:22:30.095Z,17.73
2023-02-12T18:24:57.696Z,15.60
2023-02-12T18:27:24.414Z,14.97
2023-02-12T18:29:51.042Z,16.47
2023-02-12T18:32:17.703Z,17.90
2023-02-12T18:34:44.930Z,15.53
2023-02-12T18:37:13.456Z,17.90
2023-02-12T18:39:40.134Z,23.90
2023-02-12T18:42:07.423Z,20.30
2023-02-12T18:44:35.515Z,18.77
2023-02-12T18:47:02.221Z,17.17
2023-02-12T18:49:28.836Z,14.87
2023-02-12T18:51:55.485Z,14.10
2023-02-12T18:54:22.698Z,15.93
2023-02-12T18:56:52.400Z,15.00
2023-02-12T18:59:20.059Z,16.10
2023-02-12T19:01:48.634Z,15.57
2023-02-12T19:04:16.241Z,14.27
2023-02-12T19:06:47.384Z,13.57
2023-02-12T19:09:16.793Z,15.50
2023-02-12T19:11:46.527Z,14.70
2023-02-12T19:14:14.628Z,14.87
2023-02-12T19:16:42.180Z,15.43
2023-02-12T19:19:09.046Z,12.70
2023-02-12T19:21:35.796Z,17.80
2023-02-12T19:24:04.827Z,18.47
2023-02-12T19:26:33.570Z,17.33
2023-02-12T19:29:01.751Z,14.50
2023-02-12T19:31:34.733Z,14.10
2023-02-12T19:34:17.985Z,12.27
2023-02-12T19:36:44.744Z,12.73
2023-02-12T19:39:15.075Z,10.40
2023-02-12T19:41:41.841Z,10.93
2023-02-12T19:44:19.065Z,11.33
2023-02-12T19:46:46.890Z,11.33
2023-02-12T19:49:17.403Z,12.27
2023-02-12T19:51:44.555Z,14.77
2023-02-12T19:54:12.989Z,16.47
2023-02-12T19:56:39.874Z,14.90
2023-02-12T19:59:06.895Z,15.33
2023-02-12T20:01:34.259Z,13.53
2023-02-12T20:04:01.620Z,13.93
2023-02-12T20:06:31.972Z,12.97
2023-02-12T20:08:58.767Z,15.40
2023-02-12T20:11:28.889Z,16.23
2023-02-12T20:13:56.327Z,14.47
2023-02-12T20:16:26.220Z,11.70
2023-02-12T20:18:54.981Z,12.27
2023-02-12T20:21:25.452Z,13.57
2023-02-12T20:23:52.328Z,12.97
2023-02-12T20:26:22.670Z,13.20
2023-02-12T20:28:50.125Z,13.57
2023-02-12T20:31:22.922Z,14.80
2023-02-12T20:34:03.509Z,15.93
2023-02-12T20:36:34.884Z,13.57
2023-02-12T20:39:01.833Z,14.03
2023-02-12T20:41:28.927Z,13.80
2023-02-12T20:43:56.226Z,12.33
2023-02-12T20:46:24.988Z,11.27
2023-02-12T20:48:52.504Z,11.93
2023-02-12T20:51:22.289Z,12.17
2023-02-12T20:53:50.060Z,12.60
2023-02-12T20:56:19.779Z,11.20
2023-02-12T20:58:47.385Z,13.50
2023-02-12T21:01:21.185Z,12.17
2023-02-12T21:03:49.541Z,11.03
2023-02-12T21:06:16.173Z,12.30
2023-02-12T21:08:43.173Z,12.87
2023-02-12T21:11:16.754Z,11.70
2023-02-12T21:13:58.778Z,10.97
2023-02-12T21:16:30.827Z,11.50
2023-02-12T21:18:57.814Z,11.87
2023-02-12T21:21:32.676Z,11.17
2023-02-12T21:24:00.373Z,12.90
2023-02-12T21:26:30.294Z,10.67
2023-02-12T21:28:59.220Z,10.23
2023-02-12T21:31:28.984Z,9.37
2023-02-12T21:33:57.691Z,10.77
2023-02-12T21:36:45.375Z,11.80
2023-02-12T21:39:24.405Z,13.37
2023-02-12T21:41:53.755Z,12.00
2023-02-12T21:44:21.636Z,11.53
2023-02-12T21:46:48.264Z,10.47
2023-02-12T21:49:23.217Z,11.83
2023-02-12T21:51:50.512Z,15.87
2023-02-12T21:54:17.212Z,12.53
2023-02-12T21:56:45.892Z,11.90
2023-02-12T21:59:12.936Z,13.33
2023-02-12T22:01:43.752Z,14.87
2023-02-12T22:04:10.799Z,12.57
2023-02-12T22:06:41.852Z,11.97
2023-02-12T22:09:10.665Z,12.97
2023-02-12T22:11:38.440Z,12.37
2023-02-12T22:14:07.202Z,12.97
2023-02-12T22:16:34.991Z,13.33
2023-02-12T22:19:02.650Z,11.80
2023-02-12T22:21:32.155Z,10.43
2023-02-12T22:24:05.543Z,11.83
2023-02-12T22:26:32.964Z,13.03
2023-02-12T22:29:04.590Z,12.33
2023-02-12T22:31:33.614Z,13.17
2023-02-12T22:34:04.820Z,12.57
2023-02-12T22:36:33.595Z,11.33
2023-02-12T22:39:01.140Z,11.00
2023-02-12T22:41:28.636Z,14.00
2023-02-12T22:43:58.373Z,11.10
2023-02-12T22:46:25.279Z,12.80
2023-02-12T22:48:51.915Z,10.20
2023-02-12T22:51:20.817Z,14.77
2023-02-12T22:53:47.845Z,13.87
2023-02-12T22:56:15.365Z,15.47
2023-02-12T22:58:42.372Z,13.73
2023-02-12T23:01:11.840Z,11.23
2023-02-12T23:03:39.053Z,13.33
2023-02-12T23:06:08.834Z,13.73
2023-02-12T23:08:35.648Z,13.63
2023-02-12T23:11:02.937Z,13.67
2023-02-12T23:13:30.368Z,13.27
2023-02-12T23:15:58.096Z,10.93
2023-02-12T23:18:25.918Z,13.47
2023-02-12T23:20:53.130Z,13.30
2023-02-12T23:23:21.304Z,11.27
2023-02-12T23:25:48.949Z,11.83
2023-02-12T23:28:16.136Z,11.67
2023-02-12T23:30:43.091Z,11.67
2023-02-12T23:33:10.067Z,13.00
2023-02-12T23:35:36.681Z,11.30
2023-02-12T23:38:04.462Z,13.17
2023-02-12T23:40:34.163Z,13.53
2023-02-12T23:43:01.920Z,13.97
2023-02-12T23:45:28.956Z,11.63
2023-02-12T23:47:55.911Z,16.20
2023-02-12T23:50:23.169Z,14.70
2023-02-12T23:52:50.083Z,18.00
2023-02-12T23:55:18.828Z,15.20
2023-02-12T23:57:45.981Z,13.63
